Time;durP1;ratioP1;P1;durP2;ratioP2;P2;SDS_P1;SDS_P2;PMS_P1;PMS_P2;Temp;Humidity;BMP_temperature;BMP_pressure;BME280_temperature;BME280_humidity;BME280_pressure;Samples;Min_cycle;Max_cycle;Signal;HPM_P1;HPM_P2
2021/06/26 00:01:37;;;;;;;24.83;16.23;;;;;;;;;;5010229;28;20483;-47
2021/06/26 00:04:03;;;;;;;20.40;16.90;;;;;;;;;;5011544;28;20413;-48
2021/06/26 00:06:29;;;;;;;19.67;15.47;;;;;;;;;;4991603;28;20451;-48
2021/06/26 00:08:55;;;;;;;17.00;15.20;;;;;;;;;;4991805;28;20688;-48
2021/06/26 00:11:21;;;;;;;17.80;15.83;;;;;;;;;;4991336;28;21221;-47
2021/06/26 00:13:47;;;;;;;31.60;18.20;;;;;;;;;;4991561;28;20393;-47
2021/06/26 00:16:14;;;;;;;18.53;16.07;;;;;;;;;;4991685;28;20383;-47
2021/06/26 00:18:40;;;;;;;19.90;16.40;;;;;;;;;;5010853;28;20963;-48
2021/06/26 00:21:06;;;;;;;22.20;15.70;;;;;;;;;;5010918;28;20516;-48
2021/06/26 00:23:32;;;;;;;19.13;16.40;;;;;;;;;;5011044;28;20870;-47
2021/06/26 00:25:58;;;;;;;18.67;16.50;;;;;;;;;;5011017;28;20465;-47
2021/06/26 00:28:24;;;;;;;23.10;16.60;;;;;;;;;;5012625;28;20384;-47
2021/06/26 00:30:49;;;;;;;18.17;14.67;;;;;;;;;;5030006;28;20441;-48
2021/06/26 00:33:15;;;;;;;23.73;17.10;;;;;;;;;;5030771;28;20941;-47
2021/06/26 00:35:41;;;;;;;19.13;16.70;;;;;;;;;;5018358;28;20797;-47
2021/06/26 00:38:07;;;;;;;17.67;15.27;;;;;;;;;;5010880;28;20457;-48
2021/06/26 00:40:34;;;;;;;19.50;16.33;;;;;;;;;;5010691;28;20768;-47
2021/06/26 00:43:00;;;;;;;24.70;18.00;;;;;;;;;;5011033;28;20409;-48
2021/06/26 00:45:26;;;;;;;21.00;17.40;;;;;;;;;;5010761;28;20382;-48
2021/06/26 00:47:52;;;;;;;24.70;19.53;;;;;;;;;;5010964;28;20375;-48
2021/06/26 00:50:20;;;;;;;21.53;18.20;;;;;;;;;;5010610;28;20439;-48
2021/06/26 00:52:46;;;;;;;22.70;19.90;;;;;;;;;;5010874;28;20400;-47
2021/06/26 00:55:12;;;;;;;22.43;19.60;;;;;;;;;;4991166;28;20408;-47
2021/06/26 00:57:41;;;;;;;22.87;20.47;;;;;;;;;;4991202;28;20935;-47
2021/06/26 01:00:07;;;;;;;24.03;20.80;;;;;;;;;;4991092;28;20425;-48
2021/06/26 01:02:33;;;;;;;25.40;22.60;;;;;;;;;;4990268;28;20874;-47
2021/06/26 01:04:59;;;;;;;25.80;20.40;;;;;;;;;;4990566;28;20926;-48
2021/06/26 01:07:25;;;;;;;26.10;20.23;;;;;;;;;;4990854;28;20941;-48
2021/06/26 01:09:51;;;;;;;23.23;20.60;;;;;;;;;;4990818;28;20467;-48
2021/06/26 01:12:17;;;;;;;24.13;19.47;;;;;;;;;;4990892;28;20846;-48
2021/06/26 01:14:43;;;;;;;23.07;19.73;;;;;;;;;;4990990;28;20384;-48
2021/06/26 01:17:09;;;;;;;29.03;20.27;;;;;;;;;;4991184;28;20411;-47
2021/06/26 01:19:35;;;;;;;21.47;19.17;;;;;;;;;;4994248;28;21095;-48
2021/06/26 01:22:03;;;;;;;25.20;21.50;;;;;;;;;;4994623;28;20415;-48
2021/06/26 01:24:29;;;;;;;23.50;21.00;;;;;;;;;;4994728;28;20452;-51
2021/06/26 01:26:57;;;;;;;25.27;19.80;;;;;;;;;;4994744;28;21045;-48
2021/06/26 01:29:23;;;;;;;24.63;20.70;;;;;;;;;;4994719;28;20398;-48
2021/06/26 01:31:49;;;;;;;25.57;21.20;;;;;;;;;;4994341;28;20444;-48
2021/06/26 01:34:15;;;;;;;27.30;19.97;;;;;;;;;;4994634;28;20408;-48
2021/06/26 01:36:41;;;;;;;22.57;19.37;;;;;;;;;;4994559;28;20433;-47
2021/06/26 01:39:07;;;;;;;27.67;21.40;;;;;;;;;;4994624;28;20494;-47
2021/06/26 01:41:33;;;;;;;26.73;20.43;;;;;;;;;;4994101;28;20407;-47
2021/06/26 01:44:00;;;;;;;26.93;20.20;;;;;;;;;;4994496;28;20404;-47
2021/06/26 01:46:26;;;;;;;28.57;22.03;;;;;;;;;;4994241;28;20954;-48
2021/06/26 01:48:52;;;;;;;25.60;20.07;;;;;;;;;;4994525;28;20542;-47
2021/06/26 01:51:18;;;;;;;27.73;21.13;;;;;;;;;;4993888;28;20895;-47
2021/06/26 01:53:44;;;;;;;23.63;19.83;;;;;;;;;;5001868;28;20434;-48
2021/06/26 01:56:13;;;;;;;26.80;20.50;;;;;;;;;;5013724;28;20468;-48
2021/06/26 01:58:39;;;;;;;27.03;21.23;;;;;;;;;;5014187;28;20400;-48
2021/06/26 02:01:05;;;;;;;23.70;20.33;;;;;;;;;;5013400;28;20427;-47
2021/06/26 02:03:31;;;;;;;25.73;20.30;;;;;;;;;;5013971;28;20370;-47
2021/06/26 02:05:57;;;;;;;21.90;19.20;;;;;;;;;;5013532;28;20951;-47
2021/06/26 02:08:23;;;;;;;22.47;19.80;;;;;;;;;;5013673;28;20505;-47
2021/06/26 02:10:49;;;;;;;22.60;20.17;;;;;;;;;;5013106;28;20429;-48
2021/06/26 02:13:15;;;;;;;20.80;18.03;;;;;;;;;;5013717;28;20399;-48
2021/06/26 02:15:41;;;;;;;23.03;19.30;;;;;;;;;;5013495;28;20475;-48
2021/06/26 02:18:07;;;;;;;26.73;19.97;;;;;;;;;;5013451;28;20409;-48
2021/06/26 02:20:33;;;;;;;21.63;18.37;;;;;;;;;;5012861;28;20430;-48
2021/06/26 02:22:59;;;;;;;24.47;20.80;;;;;;;;;;5013368;28;20389;-49
2021/06/26 02:25:25;;;;;;;27.53;21.00;;;;;;;;;;5013220;28;20407;-48
2021/06/26 02:27:50;;;;;;;25.57;19.80;;;;;;;;;;5013347;28;20410;-47
2021/06/26 02:30:17;;;;;;;26.33;20.77;;;;;;;;;;5012541;28;20452;-48
2021/06/26 02:32:42;;;;;;;28.47;20.07;;;;;;;;;;5013028;28;20954;-47
2021/06/26 02:35:10;;;;;;;26.13;20.67;;;;;;;;;;5013196;28;20395;-47
2021/06/26 02:37:36;;;;;;;27.27;21.00;;;;;;;;;;5013194;28;20411;-47
2021/06/26 02:40:02;;;;;;;29.50;20.30;;;;;;;;;;5012974;28;20744;-48
2021/06/26 02:42:28;;;;;;;24.87;21.13;;;;;;;;;;5012570;28;20423;-48
2021/06/26 02:44:53;;;;;;;31.20;21.80;;;;;;;;;;5012936;28;20418;-47
2021/06/26 02:47:21;;;;;;;25.47;20.43;;;;;;;;;;5012726;28;20436;-48
2021/06/26 02:49:47;;;;;;;33.03;20.73;;;;;;;;;;5012703;28;20638;-48
2021/06/26 02:52:13;;;;;;;29.50;19.97;;;;;;;;;;5012412;28;20415;-48
2021/06/26 02:54:39;;;;;;;34.43;20.73;;;;;;;;;;5012630;28;20437;-48
2021/06/26 02:57:05;;;;;;;36.43;20.77;;;;;;;;;;5012575;28;20381;-48
2021/06/26 02:59:31;;;;;;;29.60;22.10;;;;;;;;;;5012654;28;20390;-47
2021/06/26 03:01:57;;;;;;;35.70;22.90;;;;;;;;;;5012297;28;20425;-48
2021/06/26 03:04:23;;;;;;;22.77;20.27;;;;;;;;;;5012607;28;20443;-48
2021/06/26 03:06:49;;;;;;;34.90;21.37;;;;;;;;;;5012362;28;20980;-47
2021/06/26 03:09:15;;;;;;;37.47;22.90;;;;;;;;;;5012423;28;20370;-47
2021/06/26 03:11:41;;;;;;;32.73;20.60;;;;;;;;;;5011990;28;20394;-48
2021/06/26 03:14:07;;;;;;;28.73;22.53;;;;;;;;;;5012442;28;20905;-48
2021/06/26 03:16:33;;;;;;;30.03;22.50;;;;;;;;;;5012229;28;20415;-47
2021/06/26 03:18:59;;;;;;;29.67;22.23;;;;;;;;;;5012268;28;20414;-48
2021/06/26 03:21:25;;;;;;;42.40;22.63;;;;;;;;;;5011921;28;20463;-50
2021/06/26 03:23:51;;;;;;;40.40;23.73;;;;;;;;;;5012106;28;20476;-47
2021/06/26 03:26:17;;;;;;;42.67;24.63;;;;;;;;;;5012140;28;20454;-47
2021/06/26 03:28:44;;;;;;;46.40;24.70;;;;;;;;;;5012106;28;20376;-47
2021/06/26 03:31:10;;;;;;;36.00;23.20;;;;;;;;;;5011688;28;20439;-48
2021/06/26 03:33:37;;;;;;;33.50;22.70;;;;;;;;;;5011874;28;20983;-48
2021/06/26 03:36:03;;;;;;;37.50;23.10;;;;;;;;;;5012011;28;20501;-48
2021/06/26 03:38:29;;;;;;;37.40;23.07;;;;;;;;;;5011869;28;20905;-48
2021/06/26 03:40:55;;;;;;;36.10;23.20;;;;;;;;;;5010987;28;20402;-48
2021/06/26 03:43:22;;;;;;;40.37;23.20;;;;;;;;;;5011807;28;20389;-47
2021/06/26 03:45:49;;;;;;;35.70;22.33;;;;;;;;;;5011674;28;20929;-49
2021/06/26 03:48:15;;;;;;;38.30;23.20;;;;;;;;;;5011871;28;20426;-48
2021/06/26 03:50:41;;;;;;;32.63;23.33;;;;;;;;;;5011458;28;20903;-48
2021/06/26 03:53:08;;;;;;;47.23;24.37;;;;;;;;;;5008864;28;20529;-49
2021/06/26 03:55:34;;;;;;;43.63;23.80;;;;;;;;;;4992093;28;20412;-48
2021/06/26 03:58:00;;;;;;;28.33;22.17;;;;;;;;;;4990624;28;20387;-47
2021/06/26 04:00:26;;;;;;;51.03;24.30;;;;;;;;;;4991615;28;20835;-48
2021/06/26 04:02:52;;;;;;;42.93;23.70;;;;;;;;;;4991865;28;20470;-48
2021/06/26 04:05:17;;;;;;;36.73;22.30;;;;;;;;;;4991942;28;20418;-47
2021/06/26 04:07:43;;;;;;;38.57;22.70;;;;;;;;;;4991817;28;20996;-48
2021/06/26 04:10:10;;;;;;;31.90;23.37;;;;;;;;;;4991807;28;20449;-48
2021/06/26 04:12:36;;;;;;;30.40;23.70;;;;;;;;;;4991571;28;20384;-47
2021/06/26 04:15:02;;;;;;;29.87;24.33;;;;;;;;;;4991921;28;20373;-48
2021/06/26 04:17:28;;;;;;;30.77;23.40;;;;;;;;;;4991888;28;20742;-47
2021/06/26 04:19:54;;;;;;;37.00;26.10;;;;;;;;;;4991636;28;20407;-47
2021/06/26 04:22:20;;;;;;;38.83;24.50;;;;;;;;;;4991380;28;20421;-48
2021/06/26 04:24:46;;;;;;;31.17;25.33;;;;;;;;;;4991511;28;20409;-47
2021/06/26 04:27:12;;;;;;;35.23;25.33;;;;;;;;;;4991555;28;20458;-49
2021/06/26 04:29:38;;;;;;;33.67;25.57;;;;;;;;;;4991220;28;20792;-48
2021/06/26 04:32:04;;;;;;;33.97;24.20;;;;;;;;;;4991328;28;20380;-47
2021/06/26 04:34:30;;;;;;;37.57;25.90;;;;;;;;;;4991383;28;20392;-48
2021/06/26 04:36:56;;;;;;;34.77;24.80;;;;;;;;;;4991491;28;20411;-48
2021/06/26 04:39:22;;;;;;;33.37;25.17;;;;;;;;;;4991309;28;20449;-48
2021/06/26 04:41:48;;;;;;;31.47;23.00;;;;;;;;;;4990009;28;20435;-47
2021/06/26 04:44:14;;;;;;;35.03;25.50;;;;;;;;;;4991179;28;20403;-47
2021/06/26 04:46:41;;;;;;;27.77;24.77;;;;;;;;;;4991348;28;21149;-48
2021/06/26 04:49:07;;;;;;;30.53;23.70;;;;;;;;;;4991233;28;20772;-48
2021/06/26 04:51:36;;;;;;;40.77;24.70;;;;;;;;;;4991162;28;20395;-47
2021/06/26 04:54:02;;;;;;;35.10;25.73;;;;;;;;;;5005269;28;20377;-48
2021/06/26 04:56:28;;;;;;;30.93;24.20;;;;;;;;;;5014911;28;20443;-48
2021/06/26 04:58:54;;;;;;;33.23;25.40;;;;;;;;;;5014792;28;20443;-48
2021/06/26 05:01:20;;;;;;;30.60;25.40;;;;;;;;;;5014596;28;20411;-48
2021/06/26 05:03:46;;;;;;;36.30;27.07;;;;;;;;;;5013414;28;20392;-48
2021/06/26 05:06:11;;;;;;;32.40;24.27;;;;;;;;;;5014753;28;20794;-48
2021/06/26 05:08:37;;;;;;;36.70;25.80;;;;;;;;;;5014736;28;20771;-48
2021/06/26 05:11:03;;;;;;;35.73;25.50;;;;;;;;;;5014343;28;20393;-47
2021/06/26 05:13:30;;;;;;;36.40;27.10;;;;;;;;;;5014626;28;20381;-48
2021/06/26 05:15:56;;;;;;;39.53;27.90;;;;;;;;;;5014412;28;20768;-48
2021/06/26 05:18:22;;;;;;;36.50;26.67;;;;;;;;;;5014586;28;20374;-48
2021/06/26 05:20:48;;;;;;;41.07;29.20;;;;;;;;;;5013997;28;20401;-48
2021/06/26 05:23:16;;;;;;;42.03;30.53;;;;;;;;;;5014550;28;20498;-48
2021/06/26 05:25:42;;;;;;;37.70;29.13;;;;;;;;;;5014220;28;20462;-47
2021/06/26 05:28:08;;;;;;;46.53;29.80;;;;;;;;;;5014422;28;20374;-48
2021/06/26 05:30:37;;;;;;;33.37;28.53;;;;;;;;;;5014298;28;20525;-48
2021/06/26 05:33:04;;;;;;;39.63;30.03;;;;;;;;;;5014295;28;20430;-47
2021/06/26 05:35:30;;;;;;;37.87;28.70;;;;;;;;;;5014110;28;20457;-48
2021/06/26 05:37:56;;;;;;;37.20;28.83;;;;;;;;;;5014404;28;20370;-47
2021/06/26 05:40:22;;;;;;;41.47;30.23;;;;;;;;;;5013789;28;20394;-48
2021/06/26 05:42:48;;;;;;;42.80;32.53;;;;;;;;;;5014159;28;20471;-48
2021/06/26 05:45:13;;;;;;;43.33;32.73;;;;;;;;;;5014010;28;20862;-48
2021/06/26 05:47:39;;;;;;;38.20;32.00;;;;;;;;;;5014126;28;20512;-47
2021/06/26 05:50:06;;;;;;;43.70;32.57;;;;;;;;;;5014051;28;20392;-49
2021/06/26 05:52:32;;;;;;;36.50;31.40;;;;;;;;;;5013827;28;20839;-49
2021/06/26 05:54:58;;;;;;;37.23;30.13;;;;;;;;;;4996358;28;20913;-48
2021/06/26 05:57:24;;;;;;;35.77;28.40;;;;;;;;;;4994418;28;20820;-48
2021/06/26 05:59:50;;;;;;;33.67;27.63;;;;;;;;;;4994449;28;20424;-48
2021/06/26 06:02:16;;;;;;;38.03;27.43;;;;;;;;;;4994318;28;20385;-49
2021/06/26 06:04:42;;;;;;;29.73;25.17;;;;;;;;;;4993723;28;20808;-48
2021/06/26 06:07:09;;;;;;;32.30;25.73;;;;;;;;;;4993984;28;20460;-48
2021/06/26 06:09:36;;;;;;;39.37;26.70;;;;;;;;;;4993966;28;20414;-48
2021/06/26 06:12:02;;;;;;;34.40;27.73;;;;;;;;;;4993759;28;20399;-48
2021/06/26 06:14:28;;;;;;;36.63;25.80;;;;;;;;;;4994100;28;20867;-47
2021/06/26 06:16:54;;;;;;;33.10;26.80;;;;;;;;;;4993840;28;20408;-48
2021/06/26 06:19:20;;;;;;;29.40;24.60;;;;;;;;;;4993988;28;20408;-48
2021/06/26 06:21:46;;;;;;;30.50;25.20;;;;;;;;;;4993359;28;20782;-48
2021/06/26 06:24:12;;;;;;;32.40;26.93;;;;;;;;;;4993691;28;20498;-48
2021/06/26 06:26:38;;;;;;;33.90;24.97;;;;;;;;;;4993709;28;20458;-48
2021/06/26 06:29:04;;;;;;;33.60;25.63;;;;;;;;;;4993683;28;20431;-48
2021/06/26 06:31:30;;;;;;;32.33;25.43;;;;;;;;;;4993118;28;20450;-48
2021/06/26 06:33:56;;;;;;;33.37;25.47;;;;;;;;;;4993567;28;20829;-48
2021/06/26 06:36:22;;;;;;;32.83;25.03;;;;;;;;;;4993384;28;20415;-48
2021/06/26 06:38:48;;;;;;;32.87;25.33;;;;;;;;;;4993427;28;20423;-48
2021/06/26 06:41:14;;;;;;;30.03;25.50;;;;;;;;;;4993079;28;20428;-48
2021/06/26 06:43:40;;;;;;;31.00;25.83;;;;;;;;;;4993413;28;20411;-48
2021/06/26 06:46:06;;;;;;;35.63;26.70;;;;;;;;;;4993179;28;20452;-48
2021/06/26 06:48:35;;;;;;;28.93;23.33;;;;;;;;;;4993351;28;20946;-48
2021/06/26 06:51:01;;;;;;;30.10;23.83;;;;;;;;;;4992787;28;20423;-48
2021/06/26 06:53:27;;;;;;;28.47;24.17;;;;;;;;;;4998372;28;20441;-48
2021/06/26 06:55:57;;;;;;;34.70;24.80;;;;;;;;;;5012713;28;20403;-48
2021/06/26 06:58:23;;;;;;;26.07;22.97;;;;;;;;;;5012900;28;20436;-49
2021/06/26 07:00:49;;;;;;;30.07;24.77;;;;;;;;;;5012385;28;20427;-48
2021/06/26 07:03:15;;;;;;;27.70;23.30;;;;;;;;;;5012547;28;20399;-48
2021/06/26 07:05:41;;;;;;;26.70;23.63;;;;;;;;;;5012544;28;20465;-48
2021/06/26 07:08:07;;;;;;;26.10;20.70;;;;;;;;;;5012429;28;20406;-48
2021/06/26 07:10:33;;;;;;;21.53;19.30;;;;;;;;;;5011856;28;20412;-48
2021/06/26 07:12:59;;;;;;;22.73;18.40;;;;;;;;;;5011815;28;20406;-48
2021/06/26 07:15:25;;;;;;;23.00;20.50;;;;;;;;;;5010978;28;20809;-48
2021/06/26 07:17:51;;;;;;;26.00;19.20;;;;;;;;;;5011512;28;20397;-48
2021/06/26 07:20:17;;;;;;;19.50;16.90;;;;;;;;;;5011503;28;20500;-49
2021/06/26 07:22:43;;;;;;;19.03;15.80;;;;;;;;;;5011293;28;20443;-49
2021/06/26 07:25:09;;;;;;;14.77;13.23;;;;;;;;;;5010962;28;20463;-49
2021/06/26 07:27:35;;;;;;;22.50;16.07;;;;;;;;;;5012020;28;20460;-48
2021/06/26 07:30:01;;;;;;;20.00;16.60;;;;;;;;;;5011980;28;20810;-49
2021/06/26 07:32:27;;;;;;;16.10;14.40;;;;;;;;;;5011600;28;20431;-48
2021/06/26 07:34:53;;;;;;;19.67;15.20;;;;;;;;;;5012002;28;20423;-48
2021/06/26 07:37:19;;;;;;;13.67;12.47;;;;;;;;;;5011896;28;20758;-48
2021/06/26 07:39:45;;;;;;;13.53;12.13;;;;;;;;;;5012035;28;20491;-48
2021/06/26 07:42:11;;;;;;;18.80;11.90;;;;;;;;;;5011599;28;20403;-48
2021/06/26 07:44:37;;;;;;;14.20;12.70;;;;;;;;;;5011979;28;20771;-48
2021/06/26 07:47:03;;;;;;;13.77;11.77;;;;;;;;;;5011845;28;20450;-48
2021/06/26 07:49:29;;;;;;;12.27;11.17;;;;;;;;;;5011704;28;20488;-47
2021/06/26 07:51:55;;;;;;;14.53;10.77;;;;;;;;;;5011644;28;20972;-48
2021/06/26 07:54:21;;;;;;;12.10;11.00;;;;;;;;;;4998981;28;20410;-48
2021/06/26 07:56:47;;;;;;;11.70;10.60;;;;;;;;;;4992272;28;20466;-48
2021/06/26 07:59:14;;;;;;;12.33;11.23;;;;;;;;;;4992052;28;20408;-48
2021/06/26 08:01:40;;;;;;;12.57;11.30;;;;;;;;;;4991786;28;20442;-48
2021/06/26 08:04:06;;;;;;;12.50;11.20;;;;;;;;;;4991841;28;20503;-48
2021/06/26 08:06:33;;;;;;;12.30;11.00;;;;;;;;;;4991983;28;20463;-48
2021/06/26 08:08:59;;;;;;;13.70;11.97;;;;;;;;;;4992010;28;20923;-48
2021/06/26 08:11:25;;;;;;;12.40;11.20;;;;;;;;;;4991556;28;20420;-48
2021/06/26 08:13:52;;;;;;;11.83;10.33;;;;;;;;;;4991683;28;20404;-48
2021/06/26 08:16:18;;;;;;;10.67;9.70;;;;;;;;;;4991841;28;20490;-48
2021/06/26 08:18:44;;;;;;;11.93;10.83;;;;;;;;;;4991517;28;20502;-48
2021/06/26 08:21:11;;;;;;;10.57;9.63;;;;;;;;;;4991338;28;20428;-48
2021/06/26 08:23:37;;;;;;;10.03;9.13;;;;;;;;;;4991517;28;20423;-49
2021/06/26 08:26:03;;;;;;;10.00;9.17;;;;;;;;;;4991555;28;20835;-49
2021/06/26 08:28:29;;;;;;;9.73;8.93;;;;;;;;;;4995624;28;20911;-49
2021/06/26 08:30:55;;;;;;;10.73;9.90;;;;;;;;;;5004586;28;20949;-49
2021/06/26 08:33:21;;;;;;;10.17;9.30;;;;;;;;;;4991211;28;20428;-49
2021/06/26 08:35:47;;;;;;;9.90;7.90;;;;;;;;;;5007474;28;20430;-49
2021/06/26 08:38:14;;;;;;;11.50;10.40;;;;;;;;;;4991556;28;20462;-50
2021/06/26 08:40:40;;;;;;;9.00;8.10;;;;;;;;;;4998820;28;20973;-50
2021/06/26 08:43:06;;;;;;;10.27;9.37;;;;;;;;;;5011186;28;20399;-50
2021/06/26 08:45:35;;;;;;;8.50;7.80;;;;;;;;;;5010771;28;20948;-50
2021/06/26 08:48:01;;;;;;;11.03;9.70;;;;;;;;;;5010873;28;20435;-49
2021/06/26 08:50:28;;;;;;;8.30;7.70;;;;;;;;;;5010565;28;20422;-49
2021/06/26 08:52:54;;;;;;;6.70;6.30;;;;;;;;;;5002576;28;20411;-50
2021/06/26 08:55:20;;;;;;;7.77;7.07;;;;;;;;;;4991273;28;20396;-51
2021/06/26 08:57:47;;;;;;;7.77;7.20;;;;;;;;;;4991312;28;20479;-50
2021/06/26 09:00:13;;;;;;;8.80;8.00;;;;;;;;;;4994314;28;20434;-49
2021/06/26 09:02:39;;;;;;;8.27;7.47;;;;;;;;;;5010561;28;20790;-49
2021/06/26 09:05:05;;;;;;;8.70;8.03;;;;;;;;;;5010887;28;20414;-50
2021/06/26 09:07:32;;;;;;;7.73;7.07;;;;;;;;;;5010189;28;21043;-50
2021/06/26 09:10:09;;;;;;;7.40;6.80;;;;;;;;;;5010496;28;20487;-51
2021/06/26 09:12:36;;;;;;;12.53;11.43;;;;;;;;;;5009281;28;20399;-50
2021/06/26 09:15:03;;;;;;;8.80;8.20;;;;;;;;;;5010467;28;20485;-51
2021/06/26 09:17:30;;;;;;;7.80;7.10;;;;;;;;;;5010606;28;20445;-52
2021/06/26 09:19:58;;;;;;;7.97;7.40;;;;;;;;;;5010634;28;20801;-50
2021/06/26 09:22:24;;;;;;;7.47;6.67;;;;;;;;;;5010559;28;20407;-50
2021/06/26 09:24:51;;;;;;;7.83;7.23;;;;;;;;;;5010739;28;20422;-49
2021/06/26 09:27:18;;;;;;;6.83;6.43;;;;;;;;;;5010811;28;20940;-51
2021/06/26 09:29:51;;;;;;;7.93;7.23;;;;;;;;;;5010400;28;20530;-50
2021/06/26 09:32:27;;;;;;;5.60;5.30;;;;;;;;;;5010466;28;20486;-51
2021/06/26 09:34:54;;;;;;;6.83;6.23;;;;;;;;;;5010715;28;20403;-51
2021/06/26 09:37:25;;;;;;;7.97;7.37;;;;;;;;;;5010595;28;20403;-50
2021/06/26 09:39:52;;;;;;;7.20;6.60;;;;;;;;;;5012575;28;20450;-50
2021/06/26 09:42:19;;;;;;;6.50;6.10;;;;;;;;;;5014063;28;20426;-49
2021/06/26 09:44:51;;;;;;;7.07;6.57;;;;;;;;;;5014190;28;20406;-49
2021/06/26 09:47:26;;;;;;;7.70;7.00;;;;;;;;;;5013953;28;20458;-49
2021/06/26 09:49:52;;;;;;;7.83;7.23;;;;;;;;;;5014016;28;20485;-50
2021/06/26 09:52:18;;;;;;;7.20;6.50;;;;;;;;;;5013632;28;20431;-49
2021/06/26 09:54:44;;;;;;;8.07;7.47;;;;;;;;;;5013834;28;20645;-50
2021/06/26 09:57:10;;;;;;;7.70;7.20;;;;;;;;;;5013717;28;20395;-49
2021/06/26 09:59:36;;;;;;;8.53;7.73;;;;;;;;;;5012436;28;20411;-49
2021/06/26 10:02:02;;;;;;;8.73;7.93;;;;;;;;;;5013403;28;20507;-49
2021/06/26 10:04:29;;;;;;;8.10;7.40;;;;;;;;;;5012244;28;20455;-49
2021/06/26 10:06:55;;;;;;;8.20;7.60;;;;;;;;;;5014174;28;20795;-49
2021/06/26 10:09:21;;;;;;;14.33;8.50;;;;;;;;;;5013573;28;20446;-49
2021/06/26 10:11:48;;;;;;;8.00;7.20;;;;;;;;;;5013358;28;20456;-49
2021/06/26 10:14:14;;;;;;;8.60;7.90;;;;;;;;;;5013486;28;20405;-49
2021/06/26 10:16:41;;;;;;;8.10;7.50;;;;;;;;;;5013353;28;20403;-49
2021/06/26 10:19:14;;;;;;;9.37;8.57;;;;;;;;;;5013418;28;20461;-49
2021/06/26 10:21:43;;;;;;;7.90;7.23;;;;;;;;;;5013189;28;20427;-48
2021/06/26 10:24:14;;;;;;;15.47;8.20;;;;;;;;;;5013376;28;20499;-48
2021/06/26 10:26:42;;;;;;;10.60;9.30;;;;;;;;;;5013200;28;20470;-49
2021/06/26 10:29:08;;;;;;;9.40;8.40;;;;;;;;;;5013135;28;20415;-49
2021/06/26 10:31:35;;;;;;;8.73;7.93;;;;;;;;;;5012880;28;20454;-48
2021/06/26 10:34:30;;;;;;;8.97;8.17;;;;;;;;;;5013086;28;20406;-48
2021/06/26 10:36:56;;;;;;;8.67;7.97;;;;;;;;;;5004450;28;20423;-48
2021/06/26 10:39:24;;;;;;;8.77;7.97;;;;;;;;;;5011694;28;20419;-49
2021/06/26 10:42:00;;;;;;;13.77;7.50;;;;;;;;;;5012526;28;20423;-49
2021/06/26 10:44:26;;;;;;;9.80;8.90;;;;;;;;;;5012618;28;20410;-48
2021/06/26 10:46:52;;;;;;;9.83;7.90;;;;;;;;;;5012620;28;20455;-48
2021/06/26 10:49:28;;;;;;;9.00;7.40;;;;;;;;;;5012026;28;20406;-48
2021/06/26 10:51:54;;;;;;;8.40;7.77;;;;;;;;;;5012133;28;20945;-48
2021/06/26 10:54:22;;;;;;;9.07;8.27;;;;;;;;;;5011517;28;20430;-48
2021/06/26 10:56:49;;;;;;;9.60;7.60;;;;;;;;;;5012164;28;20798;-48
2021/06/26 10:59:17;;;;;;;7.90;7.30;;;;;;;;;;5012415;28;20403;-49
2021/06/26 11:01:56;;;;;;;9.90;9.10;;;;;;;;;;5012501;28;20427;-48
2021/06/26 11:04:22;;;;;;;8.83;8.03;;;;;;;;;;5012507;28;20489;-49
2021/06/26 11:06:50;;;;;;;7.50;6.90;;;;;;;;;;5012537;28;20466;-49
2021/06/26 11:09:16;;;;;;;7.83;7.30;;;;;;;;;;5012875;28;20434;-49
2021/06/26 11:11:48;;;;;;;8.40;7.70;;;;;;;;;;5012490;28;20474;-48
2021/06/26 11:14:21;;;;;;;7.90;7.30;;;;;;;;;;5012522;28;20497;-48
2021/06/26 11:16:48;;;;;;;7.73;7.07;;;;;;;;;;5012551;28;20396;-48
2021/06/26 11:19:14;;;;;;;7.40;6.80;;;;;;;;;;5012495;28;20491;-49
2021/06/26 11:21:41;;;;;;;10.97;8.07;;;;;;;;;;5011753;28;20443;-49
2021/06/26 11:24:07;;;;;;;9.30;8.27;;;;;;;;;;5011900;28;20400;-49
2021/06/26 11:26:44;;;;;;;10.07;8.50;;;;;;;;;;5012052;28;20540;-49
2021/06/26 11:29:09;;;;;;;8.93;8.13;;;;;;;;;;5011729;28;20410;-49
2021/06/26 11:31:35;;;;;;;10.03;9.23;;;;;;;;;;5012356;28;20854;-49
2021/06/26 11:34:10;;;;;;;7.57;6.83;;;;;;;;;;5012924;28;20431;-49
2021/06/26 11:36:36;;;;;;;7.90;7.13;;;;;;;;;;5013001;28;20907;-48
2021/06/26 11:39:02;;;;;;;8.60;7.90;;;;;;;;;;5012961;28;20489;-49
2021/06/26 11:41:29;;;;;;;7.77;7.17;;;;;;;;;;5012548;28;20423;-49
2021/06/26 11:43:55;;;;;;;8.40;7.70;;;;;;;;;;5012742;28;20434;-49
2021/06/26 11:46:21;;;;;;;9.10;8.30;;;;;;;;;;5012512;28;20847;-49
2021/06/26 11:48:50;;;;;;;7.00;6.47;;;;;;;;;;5012782;28;20758;-49
2021/06/26 11:51:16;;;;;;;9.43;8.63;;;;;;;;;;5011704;28;20951;-49
2021/06/26 11:53:43;;;;;;;8.60;7.83;;;;;;;;;;5011879;28;20399;-49
2021/06/26 11:56:13;;;;;;;9.50;8.17;;;;;;;;;;5012018;28;20892;-49
2021/06/26 11:58:48;;;;;;;8.47;7.60;;;;;;;;;;5012028;28;20415;-49
2021/06/26 12:01:15;;;;;;;10.23;7.60;;;;;;;;;;5011764;28;20458;-49
2021/06/26 12:03:42;;;;;;;7.27;6.57;;;;;;;;;;5012015;28;20817;-49
2021/06/26 12:06:09;;;;;;;7.13;6.50;;;;;;;;;;5012179;28;20496;-49
2021/06/26 12:08:46;;;;;;;8.93;8.10;;;;;;;;;;5012518;28;20415;-49
2021/06/26 12:11:13;;;;;;;10.50;9.70;;;;;;;;;;5011811;28;20521;-49
2021/06/26 12:13:40;;;;;;;10.07;8.97;;;;;;;;;;5011698;28;20895;-49
2021/06/26 12:16:07;;;;;;;13.37;7.43;;;;;;;;;;5015663;28;20859;-49
2021/06/26 12:18:33;;;;;;;10.30;6.63;;;;;;;;;;5012444;28;20426;-49
2021/06/26 12:21:07;;;;;;;8.20;7.47;;;;;;;;;;5013020;28;20439;-49
2021/06/26 12:23:42;;;;;;;11.67;8.37;;;;;;;;;;5007949;28;20448;-49
2021/06/26 12:26:15;;;;;;;13.33;7.83;;;;;;;;;;4992154;28;20450;-49
2021/06/26 12:28:41;;;;;;;8.00;7.20;;;;;;;;;;4992346;28;20458;-49
2021/06/26 12:31:07;;;;;;;8.57;7.73;;;;;;;;;;4991859;28;20652;-49
2021/06/26 12:33:33;;;;;;;7.60;7.10;;;;;;;;;;4992371;28;20420;-49
2021/06/26 12:35:59;;;;;;;8.20;7.57;;;;;;;;;;4991075;28;20946;-49
2021/06/26 12:38:34;;;;;;;10.13;9.33;;;;;;;;;;4992402;28;20416;-49
2021/06/26 12:41:00;;;;;;;8.40;7.50;;;;;;;;;;5003648;28;20947;-49
2021/06/26 12:43:32;;;;;;;8.97;8.27;;;;;;;;;;5011420;28;20407;-48
2021/06/26 12:45:58;;;;;;;7.37;6.63;;;;;;;;;;5011322;28;20454;-48
2021/06/26 12:48:29;;;;;;;8.30;7.60;;;;;;;;;;5011564;28;20453;-48
2021/06/26 12:51:07;;;;;;;9.53;8.67;;;;;;;;;;5011274;28;20426;-49
2021/06/26 12:53:43;;;;;;;8.37;7.57;;;;;;;;;;5011192;28;20706;-49
2021/06/26 12:56:12;;;;;;;10.07;9.10;;;;;;;;;;5004365;28;20502;-49
2021/06/26 12:58:39;;;;;;;9.90;9.00;;;;;;;;;;4991317;28;20400;-48
2021/06/26 13:01:05;;;;;;;12.10;11.00;;;;;;;;;;4990445;28;20423;-48
2021/06/26 13:03:32;;;;;;;9.60;8.07;;;;;;;;;;4990954;28;20824;-47
2021/06/26 13:06:08;;;;;;;10.73;9.73;;;;;;;;;;4990843;28;20451;-50
2021/06/26 13:08:45;;;;;;;22.13;19.10;;;;;;;;;;4991424;28;20412;-48
2021/06/26 13:11:12;;;;;;;13.30;12.00;;;;;;;;;;4990878;28;20416;-50
2021/06/26 13:13:38;;;;;;;11.80;10.70;;;;;;;;;;4992744;28;20435;-49
2021/06/26 13:16:04;;;;;;;9.90;8.80;;;;;;;;;;4995794;28;20431;-49
2021/06/26 13:18:30;;;;;;;13.10;11.80;;;;;;;;;;4994687;28;20466;-48
2021/06/26 13:20:56;;;;;;;8.77;8.07;;;;;;;;;;4994434;28;20416;-48
2021/06/26 13:23:22;;;;;;;10.63;9.30;;;;;;;;;;4994592;28;20892;-48
2021/06/26 13:25:48;;;;;;;11.57;10.47;;;;;;;;;;4994740;28;20430;-49
2021/06/26 13:28:14;;;;;;;8.60;7.90;;;;;;;;;;4994869;28;20432;-49
2021/06/26 13:30:40;;;;;;;9.80;9.00;;;;;;;;;;4977461;28;20501;-49
2021/06/26 13:33:06;;;;;;;8.37;7.57;;;;;;;;;;4995618;28;20912;-49
2021/06/26 13:35:34;;;;;;;6.87;6.43;;;;;;;;;;4995381;28;20907;-49
2021/06/26 13:38:00;;;;;;;8.83;8.00;;;;;;;;;;4994183;28;20501;-49
2021/06/26 13:40:26;;;;;;;6.83;6.23;;;;;;;;;;4993857;28;20467;-49
2021/06/26 13:42:52;;;;;;;7.43;6.93;;;;;;;;;;4994605;28;20408;-49
2021/06/26 13:45:18;;;;;;;7.30;6.60;;;;;;;;;;4994206;28;20408;-49
2021/06/26 13:47:44;;;;;;;7.77;7.17;;;;;;;;;;4994524;28;20212;-49
2021/06/26 13:50:10;;;;;;;7.37;6.67;;;;;;;;;;4994463;28;20427;-50
2021/06/26 13:52:36;;;;;;;7.73;6.77;;;;;;;;;;4994536;28;20411;-50
2021/06/26 13:55:02;;;;;;;7.17;6.57;;;;;;;;;;4994568;28;20396;-50
2021/06/26 13:57:28;;;;;;;6.77;6.33;;;;;;;;;;4995249;28;20825;-50
2021/06/26 13:59:55;;;;;;;6.90;6.40;;;;;;;;;;4994817;28;20424;-50
2021/06/26 14:02:21;;;;;;;7.57;6.97;;;;;;;;;;4994642;28;20407;-50
2021/06/26 14:04:47;;;;;;;7.97;7.30;;;;;;;;;;4994640;28;20408;-50
2021/06/26 14:07:13;;;;;;;8.47;7.60;;;;;;;;;;4994179;28;20459;-49
2021/06/26 14:09:38;;;;;;;6.90;6.30;;;;;;;;;;4994147;28;20200;-50
2021/06/26 14:12:05;;;;;;;7.90;7.30;;;;;;;;;;4994047;28;20407;-50
2021/06/26 14:14:31;;;;;;;9.83;9.13;;;;;;;;;;4994593;28;20238;-49
2021/06/26 14:16:57;;;;;;;8.90;7.57;;;;;;;;;;4995618;28;20900;-49
2021/06/26 14:19:23;;;;;;;8.20;7.60;;;;;;;;;;4994999;28;20408;-49
2021/06/26 14:21:49;;;;;;;8.20;7.60;;;;;;;;;;4994318;28;20431;-49
2021/06/26 14:24:15;;;;;;;8.47;7.60;;;;;;;;;;4993902;28;20404;-49